Time;durP1;ratioP1;P1;durP2;ratioP2;P2;SDS_P1;SDS_P2;PMS_P1;PMS_P2;Temp;Humidity;BMP_temperature;BMP_pressure;BME280_temperature;BME280_humidity;BME280_pressure;Samples;Min_cycle;Max_cycle;Signal;HPM_P1;HPM_P2
2022/05/29 00:00:21;;;;;;;6.20;1.90;;;;;;;9.62;78.52;101652.66;5033655;28;20082;-74
2022/05/29 00:02:48;;;;;;;5.47;1.80;;;;;;;9.57;78.51;101657.81;5014189;28;20102;-73
2022/05/29 00:05:14;;;;;;;8.35;2.25;;;;;;;9.61;78.59;101658.28;5017982;28;20037;-73
2022/05/29 00:07:40;;;;;;;9.43;2.20;;;;;;;9.53;78.88;101645.75;5029153;28;20030;-73
2022/05/29 00:10:09;;;;;;;7.28;1.92;;;;;;;9.49;79.36;101650.69;5028438;28;20514;-73
2022/05/29 00:12:35;;;;;;;8.15;2.10;;;;;;;9.59;78.43;101650.38;5028570;28;20521;-73
2022/05/29 00:15:02;;;;;;;6.63;2.10;;;;;;;9.55;79.12;101646.38;5031294;28;20033;-73
2022/05/29 00:17:27;;;;;;;8.15;1.92;;;;;;;9.60;78.30;101645.78;5033513;28;20489;-73
2022/05/29 00:19:53;;;;;;;5.43;1.88;;;;;;;9.46;79.08;101640.28;5032457;28;20112;-73
2022/05/29 00:22:20;;;;;;;8.75;2.20;;;;;;;9.49;78.70;101637.19;5031693;28;20021;-72
2022/05/29 00:24:48;;;;;;;4.80;1.90;;;;;;;9.49;79.06;101639.91;5032280;28;20474;-73
2022/05/29 00:27:16;;;;;;;8.93;2.40;;;;;;;9.49;78.94;101633.66;5031895;28;20521;-73
2022/05/29 00:29:42;;;;;;;7.72;2.10;;;;;;;9.49;79.60;101623.69;5030384;28;20026;-72
2022/05/29 00:32:08;;;;;;;5.28;2.00;;;;;;;9.48;79.80;101632.84;5028332;28;20052;-72
2022/05/29 00:34:34;;;;;;;8.68;2.08;;;;;;;9.48;78.67;101630.16;5028775;28;20535;-73
2022/05/29 00:37:00;;;;;;;6.60;1.83;;;;;;;9.43;78.95;101620.97;5028444;28;20122;-73
2022/05/29 00:39:26;;;;;;;4.85;1.70;;;;;;;9.39;79.81;101628.59;5018640;28;20437;-73
2022/05/29 00:41:52;;;;;;;5.80;1.92;;;;;;;9.37;79.54;101625.28;5013554;28;20049;-73
2022/05/29 00:44:22;;;;;;;5.80;1.92;;;;;;;9.39;79.25;101621.34;5028209;28;20065;-73
2022/05/29 00:46:59;;;;;;;7.68;2.00;;;;;;;9.40;79.45;101616.78;5012821;28;20080;-73
2022/05/29 00:49:30;;;;;;;9.35;2.28;;;;;;;9.38;79.97;101616.97;5031036;28;20083;-73
2022/05/29 00:51:58;;;;;;;9.15;2.47;;;;;;;9.40;80.28;101609.53;5033449;28;20025;-73
2022/05/29 00:54:24;;;;;;;5.57;2.17;;;;;;;9.42;80.23;101613.88;5032839;28;20492;-73
2022/05/29 00:56:52;;;;;;;10.27;2.40;;;;;;;9.28;80.27;101604.84;5032738;28;20550;-73
2022/05/29 00:59:23;;;;;;;10.85;2.10;;;;;;;9.33;80.59;101605.09;5032677;28;20083;-73
2022/05/29 01:01:50;;;;;;;10.10;2.28;;;;;;;9.30;80.82;101597.38;5029482;28;20049;-72
2022/05/29 01:04:16;;;;;;;7.70;2.50;;;;;;;9.27;81.00;101598.63;5014993;28;20034;-73
2022/05/29 01:06:42;;;;;;;10.57;2.35;;;;;;;9.22;81.51;101590.28;5013088;28;20033;-72
2022/05/29 01:09:10;;;;;;;7.13;2.50;;;;;;;9.25;81.66;101597.97;5012726;28;20059;-73
2022/05/29 01:12:00;;;;;;;7.80;2.50;;;;;;;9.26;81.87;101593.44;5012739;28;20086;-73
2022/05/29 01:14:30;;;;;;;7.18;2.75;;;;;;;9.22;82.45;101591.13;5012986;28;20038;-73
2022/05/29 01:17:29;;;;;;;9.23;2.80;;;;;;;9.24;82.50;101601.72;5013033;28;20087;-73
2022/05/29 01:20:18;;;;;;;12.13;2.70;;;;;;;9.35;81.32;101595.75;5013041;28;20056;-73
2022/05/29 01:23:18;;;;;;;8.77;2.65;;;;;;;9.34;82.01;101594.09;4993625;28;20121;-72
2022/05/29 01:26:08;;;;;;;11.25;2.90;;;;;;;9.34;82.12;101587.84;5012978;28;20645;-73
2022/05/29 01:28:53;;;;;;;9.55;2.85;;;;;;;9.31;83.58;101583.69;5012989;28;20026;-73
2022/05/29 01:31:37;;;;;;;8.48;3.03;;;;;;;9.36;83.50;101581.22;5012172;28;20116;-72
2022/05/29 01:34:12;;;;;;;10.60;3.25;;;;;;;9.38;82.90;101581.84;5012504;28;20540;-72
2022/05/29 01:36:49;;;;;;;8.80;2.85;;;;;;;9.34;82.98;101582.44;5012688;28;20033;-73
2022/05/29 01:39:31;;;;;;;10.55;3.25;;;;;;;9.32;83.35;101584.53;5012505;28;20109;-73
2022/05/29 01:42:11;;;;;;;;;;;;;;;9.46;79.45;101580.03;4995527;28;20065;-73
2022/05/29 01:45:10;;;;;;;9.75;3.17;;;;;;;9.36;82.11;101570.44;5012847;28;20358;-72
2022/05/29 01:47:47;;;;;;;9.20;2.95;;;;;;;9.28;83.17;101569.75;4995367;28;20091;-72
2022/05/29 01:50:28;;;;;;;10.43;3.05;;;;;;;9.29;82.67;101566.84;5012150;28;20038;-73
2022/05/29 01:53:07;;;;;;;10.30;2.70;;;;;;;9.25;82.82;101562.88;5012865;28;20046;-72
2022/05/29 01:55:39;;;;;;;7.75;2.95;;;;;;;9.26;82.97;101566.41;5011268;28;20475;-72
2022/05/29 01:58:11;;;;;;;9.93;2.80;;;;;;;9.23;83.53;101567.66;5015258;28;20022;-72
2022/05/29 02:00:36;;;;;;;11.95;2.80;;;;;;;9.23;83.49;101559.53;5013332;28;20097;-73
2022/05/29 02:03:32;;;;;;;13.38;3.72;;;;;;;9.28;83.31;101557.06;5018071;28;20117;-72
2022/05/29 02:06:08;;;;;;;12.82;3.42;;;;;;;9.18;82.88;101556.63;5034522;28;20079;-72
2022/05/29 02:08:56;;;;;;;10.70;2.90;;;;;;;9.20;83.25;101549.13;5035837;28;20030;-72
2022/05/29 02:11:24;;;;;;;9.18;2.90;;;;;;;9.12;83.61;101551.97;5025032;28;20049;-72
2022/05/29 02:14:11;;;;;;;7.03;2.80;;;;;;;9.16;84.31;101553.25;5016336;28;20056;-73
2022/05/29 02:16:47;;;;;;;10.13;3.05;;;;;;;9.11;83.87;101553.84;5016116;28;20475;-72
2022/05/29 02:19:19;;;;;;;10.20;3.28;;;;;;;9.07;83.81;101549.88;5016289;28;20117;-72
2022/05/29 02:21:50;;;;;;;10.88;2.78;;;;;;;9.08;84.28;101546.16;5016194;28;20033;-72
2022/05/29 02:24:21;;;;;;;5.78;2.72;;;;;;;9.10;84.46;101549.47;5016243;28;20127;-72
2022/05/29 02:27:06;;;;;;;7.80;2.80;;;;;;;9.11;84.77;101539.53;5031161;28;20041;-72
2022/05/29 02:29:32;;;;;;;7.43;2.80;;;;;;;9.07;84.42;101538.25;5028777;28;20422;-72
2022/05/29 02:32:09;;;;;;;10.60;3.28;;;;;;;9.00;84.54;101533.66;5036122;28;20037;-72
2022/05/29 02:34:57;;;;;;;10.77;3.03;;;;;;;8.97;84.77;101528.66;5035497;28;20026;-72
2022/05/29 02:37:59;;;;;;;10.20;3.08;;;;;;;9.04;83.84;101536.78;5027312;28;20394;-72
2022/05/29 02:40:33;;;;;;;9.63;3.13;;;;;;;9.01;84.73;101534.47;4965153;28;20053;-72
2022/05/29 02:43:27;;;;;;;9.57;3.30;;;;;;;9.00;83.81;101536.34;5035635;28;20033;-72
2022/05/29 02:46:30;;;;;;;8.70;3.22;;;;;;;8.95;84.55;101536.13;5035816;28;20378;-72
2022/05/29 02:49:06;;;;;;;9.50;2.90;;;;;;;8.84;85.39;101532.06;5035218;28;20035;-72
2022/05/29 02:51:54;;;;;;;12.88;3.50;;;;;;;8.86;84.26;101529.19;5035178;28;20393;-72
2022/05/29 02:54:28;;;;;;;12.57;3.05;;;;;;;8.83;85.60;101527.72;5033872;28;20099;-72
2022/05/29 02:56:56;;;;;;;13.23;3.08;;;;;;;8.81;86.00;101521.66;5015230;28;20537;-72
2022/05/29 02:59:30;;;;;;;9.48;2.90;;;;;;;8.78;85.67;101518.53;5015263;28;20033;-72
2022/05/29 03:02:15;;;;;;;8.68;2.72;;;;;;;8.77;85.82;101523.13;5023031;28;20080;-72
2022/05/29 03:04:59;;;;;;;7.15;3.08;;;;;;;8.74;85.79;101517.25;5035241;28;20029;-72
2022/05/29 03:07:41;;;;;;;8.30;3.22;;;;;;;8.74;86.45;101520.81;5035122;28;20025;-71
2022/05/29 03:10:25;;;;;;;9.65;3.10;;;;;;;8.75;86.60;101525.16;5034113;28;20371;-72
2022/05/29 03:13:08;;;;;;;5.75;2.90;;;;;;;8.76;85.76;101523.31;5033583;28;20052;-72
2022/05/29 03:15:49;;;;;;;10.00;2.97;;;;;;;8.74;86.55;101517.25;5028370;28;20470;-72
2022/05/29 03:18:51;;;;;;;9.45;3.30;;;;;;;8.76;86.03;101517.91;5034774;28;20034;-72
2022/05/29 03:21:31;;;;;;;9.70;3.05;;;;;;;8.77;86.28;101517.72;5034657;28;20033;-72
2022/05/29 03:24:22;;;;;;;10.63;3.28;;;;;;;8.80;86.45;101508.38;5034344;28;20052;-72
2022/05/29 03:26:56;;;;;;;7.90;3.00;;;;;;;8.84;85.73;101509.66;5034252;28;20056;-72
2022/05/29 03:29:53;;;;;;;10.57;3.13;;;;;;;8.93;86.16;101516.56;5034448;28;20101;-72
2022/05/29 03:32:20;;;;;;;11.75;3.30;;;;;;;8.88;85.72;101510.94;5016598;28;20036;-72
2022/05/29 03:34:45;;;;;;;12.55;3.45;;;;;;;8.91;85.52;101501.59;5034611;28;20034;-72
2022/05/29 03:37:11;;;;;;;9.82;2.90;;;;;;;8.89;85.84;101509.06;5033298;28;20028;-72
2022/05/29 03:39:36;;;;;;;11.80;3.20;;;;;;;8.88;86.08;101505.53;5032405;28;20509;-72
2022/05/29 03:42:02;;;;;;;11.15;3.30;;;;;;;8.82;87.01;101498.25;5014840;28;20041;-72
2022/05/29 03:44:28;;;;;;;12.48;3.10;;;;;;;8.86;87.03;101504.88;5014134;28;20438;-72
2022/05/29 03:46:53;;;;;;;10.00;2.70;;;;;;;8.87;87.12;101493.06;5014676;28;20040;-72
2022/05/29 03:49:21;;;;;;;10.85;3.33;;;;;;;8.83;86.88;101489.09;5029377;28;20037;-72
2022/05/29 03:51:47;;;;;;;10.82;2.97;;;;;;;8.81;87.44;101491.97;5014415;28;20372;-72
2022/05/29 03:54:12;;;;;;;8.27;3.38;;;;;;;8.77;87.88;101484.47;5014440;28;20061;-72
2022/05/29 03:56:38;;;;;;;7.65;2.90;;;;;;;8.76;87.93;101490.94;5014091;28;20030;-72
2022/05/29 03:59:04;;;;;;;8.13;2.95;;;;;;;8.76;88.44;101489.06;5014397;28;20057;-72
2022/05/29 04:01:30;;;;;;;9.95;3.33;;;;;;;8.82;88.25;101482.03;5017930;28;20041;-72
2022/05/29 04:03:56;;;;;;;9.05;2.67;;;;;;;8.88;87.15;101473.16;5016423;28;20536;-72
2022/05/29 04:06:23;;;;;;;8.52;3.35;;;;;;;8.92;87.47;101485.19;5025272;28;20040;-72
2022/05/29 04:14:16;;;;;;;10.30;3.10;;;;;;;8.97;86.65;101474.66;5014067;28;20048;-72
2022/05/29 04:16:41;;;;;;;9.63;2.85;;;;;;;9.00;88.10;101486.94;5014100;28;20034;-72
2022/05/29 04:19:06;;;;;;;12.45;3.25;;;;;;;9.01;87.32;101480.47;5013783;28;20029;-72
2022/05/29 04:21:33;;;;;;;8.48;3.00;;;;;;;9.10;87.46;101481.16;5012633;28;20026;-72
2022/05/29 04:23:58;;;;;;;11.20;3.30;;;;;;;9.09;87.25;101477.63;5025328;28;20045;-72
2022/05/29 04:26:23;;;;;;;10.20;3.00;;;;;;;9.09;87.32;101471.38;5033438;28;20179;-72
2022/05/29 04:28:48;;;;;;;10.00;3.25;;;;;;;9.03;87.73;101479.25;5033198;28;20025;-72
2022/05/29 04:31:14;;;;;;;10.50;3.30;;;;;;;8.94;89.09;101477.75;5033570;28;20029;-72
2022/05/29 04:33:39;;;;;;;14.20;3.63;;;;;;;8.90;89.29;101467.56;5033704;28;20528;-72
2022/05/29 04:36:05;;;;;;;9.35;3.20;;;;;;;8.92;89.70;101482.50;5032277;28;20033;-72
2022/05/29 04:38:30;;;;;;;8.63;3.28;;;;;;;8.89;90.47;101482.06;5019846;28;20119;-72
2022/05/29 04:40:57;;;;;;;9.18;3.25;;;;;;;8.85;90.39;101493.25;5013391;28;20471;-72
2022/05/29 04:43:22;;;;;;;22.02;4.07;;;;;;;8.83;92.21;101489.94;5013334;28;20021;-74
2022/05/29 04:45:53;;;;;;;9.98;3.47;;;;;;;8.81;92.43;101497.38;5012125;28;20124;-73
2022/05/29 04:48:18;;;;;;;10.52;3.55;;;;;;;8.73;93.65;101494.03;5012101;28;20034;-72
2022/05/29 04:50:43;;;;;;;9.75;3.53;;;;;;;8.72;94.85;101498.56;5013222;28;20380;-72
2022/05/29 04:53:09;;;;;;;14.10;3.90;;;;;;;8.71;95.47;101496.06;5031013;28;20485;-72
2022/05/29 04:55:37;;;;;;;13.45;3.72;;;;;;;8.69;95.34;101499.78;5032920;28;20036;-72
2022/05/29 04:58:02;;;;;;;12.85;3.20;;;;;;;8.71;96.99;101485.28;5032860;28;20033;-72
2022/05/29 05:00:28;;;;;;;10.82;3.67;;;;;;;8.70;96.72;101489.84;5029249;28;20102;-72
2022/05/29 05:02:54;;;;;;;8.55;3.33;;;;;;;8.68;95.96;101481.94;5030818;28;20436;-72
2022/05/29 05:05:20;;;;;;;10.02;3.47;;;;;;;8.69;96.99;101480.91;5032771;28;20034;-72
2022/05/29 05:07:45;;;;;;;10.15;3.72;;;;;;;8.74;97.09;101476.78;5032991;28;20037;-72
2022/05/29 05:10:15;;;;;;;10.70;3.70;;;;;;;8.78;97.51;101470.78;5014796;28;20060;-72
2022/05/29 05:12:41;;;;;;;8.35;3.55;;;;;;;8.78;96.94;101461.88;5032570;28;20045;-72
2022/05/29 05:15:08;;;;;;;10.35;3.97;;;;;;;8.83;97.07;101470.19;5032731;28;20116;-72
2022/05/29 05:17:34;;;;;;;10.75;3.47;;;;;;;8.85;96.79;101466.28;5032828;28;20060;-72
2022/05/29 05:19:59;;;;;;;8.75;3.30;;;;;;;8.94;97.96;101476.94;5023189;28;20463;-72
2022/05/29 05:22:24;;;;;;;9.52;3.70;;;;;;;9.01;98.11;101469.69;5013035;28;20037;-73
2022/05/29 05:24:50;;;;;;;12.63;3.78;;;;;;;9.07;99.28;101473.47;5027686;28;20037;-72
2022/05/29 05:27:15;;;;;;;12.02;3.70;;;;;;;9.11;98.68;101469.34;5027892;28;20029;-72
2022/05/29 05:29:42;;;;;;;11.25;3.78;;;;;;;9.08;98.10;101462.47;5012650;28;20049;-72
2022/05/29 05:32:07;;;;;;;12.32;3.67;;;;;;;9.10;98.51;101467.66;5012546;28;20033;-72
2022/05/29 05:34:32;;;;;;;15.85;4.03;;;;;;;9.11;96.32;101463.94;5020021;28;20064;-72
2022/05/29 05:36:58;;;;;;;7.32;3.63;;;;;;;9.16;97.95;101472.25;5032532;28;20071;-72
2022/05/29 05:39:23;;;;;;;7.95;3.50;;;;;;;9.19;97.58;101461.91;5016188;28;20038;-72
2022/05/29 05:41:49;;;;;;;11.70;3.70;;;;;;;9.26;99.25;101466.50;4995189;28;20038;-72
2022/05/29 05:44:16;;;;;;;10.40;3.80;;;;;;;9.29;97.74;101466.09;5027927;28;20081;-72
2022/05/29 05:46:46;;;;;;;12.48;3.47;;;;;;;9.23;98.61;101471.25;5012513;28;20459;-72
2022/05/29 05:49:12;;;;;;;10.43;3.78;;;;;;;9.26;98.02;101467.31;5012694;28;20060;-72
2022/05/29 05:51:38;;;;;;;10.57;3.47;;;;;;;9.20;97.00;101468.94;5012321;28;20026;-72
2022/05/29 05:54:03;;;;;;;13.10;4.38;;;;;;;9.23;98.51;101459.63;5026725;28;20026;-72
2022/05/29 05:56:28;;;;;;;8.70;3.50;;;;;;;9.24;97.50;101461.31;5031800;28;20068;-72
2022/05/29 05:58:54;;;;;;;10.88;3.95;;;;;;;9.25;97.94;101462.94;5032095;28;20022;-72
2022/05/29 06:01:19;;;;;;;8.38;3.90;;;;;;;9.32;97.39;101465.69;5029978;28;20386;-72
2022/05/29 06:03:44;;;;;;;9.85;3.95;;;;;;;9.36;98.26;101461.53;5031721;28;20022;-72
2022/05/29 06:06:10;;;;;;;9.23;3.90;;;;;;;9.42;97.18;101460.75;5032268;28;20073;-72
2022/05/29 06:08:35;;;;;;;11.13;4.10;;;;;;;9.34;97.10;101452.81;5032323;28;20108;-72
2022/05/29 06:11:01;;;;;;;13.57;4.00;;;;;;;9.38;98.98;101468.41;5031412;28;20514;-72
2022/05/29 06:13:27;;;;;;;9.68;3.95;;;;;;;9.41;98.67;101459.06;5012509;28;20034;-72
2022/05/29 06:15:52;;;;;;;7.95;3.53;;;;;;;9.43;98.07;101456.16;5012395;28;20116;-72
2022/05/29 06:18:18;;;;;;;12.55;3.80;;;;;;;9.46;97.75;101461.16;5012400;28;20390;-72
2022/05/29 06:20:45;;;;;;;11.20;3.88;;;;;;;9.48;98.46;101461.78;5011908;28;20034;-72
2022/05/29 06:23:11;;;;;;;11.90;4.10;;;;;;;9.52;99.41;101454.94;5012269;28;20037;-72
2022/05/29 06:25:40;;;;;;;10.40;3.95;;;;;;;9.61;99.53;101463.72;5027609;28;20045;-72
2022/05/29 06:28:06;;;;;;;6.70;3.65;;;;;;;9.68;99.05;101457.28;5031991;28;20095;-72
2022/05/29 06:30:32;;;;;;;11.82;3.90;;;;;;;9.68;97.64;101454.59;5030611;28;20029;-72
2022/05/29 06:32:57;;;;;;;13.65;3.90;;;;;;;9.69;99.95;101458.97;5011891;28;20026;-72
2022/05/29 06:35:22;;;;;;;7.82;3.45;;;;;;;9.76;99.54;101451.69;5010934;28;20761;-72
2022/05/29 06:37:48;;;;;;;17.42;4.07;;;;;;;9.82;99.90;101460.03;5012070;28;20038;-72
2022/05/29 06:40:14;;;;;;;11.55;3.90;;;;;;;9.88;99.19;101460.03;5012214;28;20068;-72
2022/05/29 06:42:41;;;;;;;8.82;3.67;;;;;;;9.92;99.40;101460.47;5013484;28;20459;-72
2022/05/29 06:45:08;;;;;;;11.05;3.47;;;;;;;10.03;99.29;101467.13;5035222;28;20397;-72
2022/05/29 06:47:34;;;;;;;10.68;3.55;;;;;;;10.08;100.00;101460.06;5035581;28;20032;-72
2022/05/29 06:49:59;;;;;;;16.17;3.60;;;;;;;10.09;97.78;101459.00;5035463;28;20025;-72
2022/05/29 06:52:29;;;;;;;8.68;3.38;;;;;;;10.14;99.77;101465.69;5017685;28;20033;-72
2022/05/29 06:54:55;;;;;;;9.57;3.20;;;;;;;10.16;98.65;101460.88;5035488;28;20033;-72
2022/05/29 06:57:36;;;;;;;11.63;3.08;;;;;;;10.19;98.43;101464.03;5034207;28;20036;-72
2022/05/29 07:08:03;;;;;;;10.10;3.20;;;;;;;10.26;97.88;101456.72;5015456;28;20037;-72
2022/05/29 07:10:31;;;;;;;8.80;3.08;;;;;;;10.26;99.33;101451.31;5014669;28;20470;-72
2022/05/29 07:12:57;;;;;;;11.27;3.72;;;;;;;10.34;100.00;101447.63;5022317;28;20049;-72
2022/05/29 07:15:23;;;;;;;10.32;3.30;;;;;;;10.39;100.00;101453.22;5034639;28;20116;-73
2022/05/29 07:17:49;;;;;;;10.07;3.45;;;;;;;10.45;100.00;101455.09;5034690;28;20129;-72
2022/05/29 07:20:16;;;;;;;10.13;3.28;;;;;;;10.51;100.00;101453.44;5034661;28;20445;-72
2022/05/29 07:22:43;;;;;;;11.88;3.70;;;;;;;10.55;98.71;101448.41;5034658;28;20029;-72
2022/05/29 07:25:12;;;;;;;7.05;3.05;;;;;;;10.62;99.13;101443.84;5033505;28;20066;-72
2022/05/29 07:27:38;;;;;;;10.77;2.92;;;;;;;10.67;97.52;101451.31;5032836;28;20128;-72
2022/05/29 07:30:05;;;;;;;6.18;2.88;;;;;;;10.68;96.35;101451.09;5023157;28;20066;-72
2022/05/29 07:32:31;;;;;;;10.38;3.08;;;;;;;10.69;97.18;101447.38;5014372;28;20443;-72
2022/05/29 07:34:57;;;;;;;8.07;2.90;;;;;;;10.71;93.70;101449.88;5014908;28;20030;-72
2022/05/29 07:37:22;;;;;;;8.68;2.65;;;;;;;10.74;95.76;101442.13;5014884;28;20027;-72
2022/05/29 07:39:50;;;;;;;8.23;2.90;;;;;;;10.77;94.73;101454.44;5014581;28;20062;-72
2022/05/29 07:45:01;;;;;;;9.95;2.90;;;;;;;10.90;95.11;101443.56;5014223;28;20080;-72
2022/05/29 07:47:33;;;;;;;8.05;2.70;;;;;;;10.99;94.10;101446.84;5014450;28;20061;-72
2022/05/29 07:49:59;;;;;;;8.32;2.72;;;;;;;11.08;93.20;101445.59;5014207;28;20029;-72
2022/05/29 07:52:25;;;;;;;8.57;3.53;;;;;;;11.11;94.56;101437.03;5016663;28;20441;-72
2022/05/29 07:54:52;;;;;;;12.25;3.13;;;;;;;11.13;90.98;101434.94;5033534;28;20025;-72
2022/05/29 07:57:18;;;;;;;12.13;3.22;;;;;;;11.16;92.77;101434.50;5032618;28;20092;-72
2022/05/29 07:59:44;;;;;;;8.85;2.80;;;;;;;11.20;90.98;101434.09;5015922;28;20129;-72
2022/05/29 08:02:12;;;;;;;9.45;2.58;;;;;;;11.23;91.66;101439.06;5030791;28;20029;-74
2022/05/29 08:04:39;;;;;;;11.20;3.00;;;;;;;11.28;90.30;101436.56;5033676;28;20107;-72
2022/05/29 08:07:04;;;;;;;10.65;3.00;;;;;;;11.33;92.46;101436.75;5034111;28;20025;-75
2022/05/29 08:09:29;;;;;;;8.90;2.67;;;;;;;11.31;87.47;101431.53;5014851;28;20038;-75
2022/05/29 08:11:55;;;;;;;10.20;2.80;;;;;;;11.38;90.06;101442.34;5033209;28;20053;-75
2022/05/29 08:14:20;;;;;;;9.27;2.60;;;;;;;11.35;86.19;101445.47;5032888;28;20037;-75
2022/05/29 08:16:46;;;;;;;8.40;2.67;;;;;;;11.39;88.90;101438.59;5033700;28;20084;-75
2022/05/29 08:19:12;;;;;;;9.45;2.72;;;;;;;11.41;86.11;101436.47;5032456;28;20044;-76
2022/05/29 08:21:37;;;;;;;11.52;2.67;;;;;;;11.55;88.48;101431.84;5033297;28;20037;-75
2022/05/29 08:32:14;;;;;;;12.68;2.55;;;;;;;11.81;84.27;101413.75;5012939;28;20056;-75
2022/05/29 08:34:41;;;;;;;9.68;2.40;;;;;;;11.96;80.64;101417.00;5013561;28;20479;-76
2022/05/29 08:37:06;;;;;;;7.35;2.20;;;;;;;12.01;78.76;101413.63;5013735;28;20100;-74
2022/05/29 08:39:32;;;;;;;11.23;2.60;;;;;;;12.18;81.41;101409.31;5015191;28;20037;-75
2022/05/29 08:41:59;;;;;;;8.77;2.97;;;;;;;12.33;80.94;101410.84;5013441;28;20034;-75
2022/05/29 08:44:39;;;;;;;7.70;2.33;;;;;;;12.39;78.12;101412.66;5013731;28;20110;-74
2022/05/29 08:47:05;;;;;;;7.50;2.38;;;;;;;12.35;77.85;101414.16;5013635;28;20029;-74
2022/05/29 08:49:39;;;;;;;10.60;2.55;;;;;;;12.26;79.85;101410.06;5013555;28;20100;-75
2022/05/29 08:52:26;;;;;;;9.85;2.58;;;;;;;12.19;78.75;101410.94;5013460;28;20038;-74
2022/05/29 08:55:01;;;;;;;9.57;2.45;;;;;;;12.18;78.71;101420.16;5025921;28;20043;-75
2022/05/29 08:57:37;;;;;;;10.07;2.20;;;;;;;12.12;77.36;101404.75;5033045;28;20037;-74
2022/05/29 09:00:07;;;;;;;8.75;2.38;;;;;;;12.18;79.78;101403.03;5033022;28;20537;-73
2022/05/29 09:03:02;;;;;;;8.88;2.60;;;;;;;12.33;79.57;101402.69;5030997;28;20065;-73
2022/05/29 09:05:39;;;;;;;9.25;2.63;;;;;;;12.40;78.66;101407.00;5032713;28;20033;-73
2022/05/29 09:08:13;;;;;;;9.30;2.63;;;;;;;12.37;77.67;101407.47;5032748;28;20426;-73
2022/05/29 09:10:43;;;;;;;9.13;2.58;;;;;;;12.37;84.15;101402.03;5031347;28;20036;-73
2022/05/29 09:13:28;;;;;;;19.05;5.40;;;;;;;12.34;82.80;101397.06;5031075;28;20064;-73
2022/05/29 09:16:01;;;;;;;13.50;3.85;;;;;;;12.33;85.39;101392.66;5015315;28;20045;-73
2022/05/29 09:18:37;;;;;;;8.35;2.38;;;;;;;12.39;83.27;101396.38;5025429;28;20046;-73
2022/05/29 09:21:08;;;;;;;11.13;2.80;;;;;;;12.43;81.62;101394.06;5031184;28;20112;-73
2022/05/29 09:23:42;;;;;;;8.43;3.13;;;;;;;12.59;84.08;101388.88;5032713;28;20071;-73
2022/05/29 09:26:13;;;;;;;7.22;2.63;;;;;;;12.68;79.52;101385.84;5028722;28;20026;-73
2022/05/29 09:28:41;;;;;;;7.43;2.53;;;;;;;12.67;75.87;101385.03;5012722;28;20057;-77
2022/05/29 09:31:15;;;;;;;7.93;2.40;;;;;;;12.53;77.59;101378.91;5013944;28;20040;-73
2022/05/29 09:33:41;;;;;;;4.93;1.88;;;;;;;12.39;75.56;101385.53;5012234;28;20101;-73
2022/05/29 09:36:22;;;;;;;8.23;2.10;;;;;;;12.26;78.01;101385.63;5019896;28;20029;-73
2022/05/29 09:38:54;;;;;;;6.97;2.47;;;;;;;12.15;75.29;101381.78;5030722;28;20670;-74
2022/05/29 09:41:36;;;;;;;9.18;2.28;;;;;;;12.06;79.42;101378.50;5032118;28;20536;-74
2022/05/29 09:44:05;;;;;;;6.43;2.17;;;;;;;12.01;77.21;101391.91;5032174;28;20033;-74
2022/05/29 09:46:41;;;;;;;7.10;2.22;;;;;;;12.09;77.20;101385.38;5031258;28;20036;-75
2022/05/29 09:52:08;;;;;;;8.25;2.20;;;;;;;12.36;74.25;101366.97;5031861;28;20121;-77
2022/05/29 09:54:36;;;;;;;5.05;1.90;;;;;;;12.44;77.64;101366.69;5008915;28;20068;-75
2022/05/29 09:57:45;;;;;;;10.15;2.47;;;;;;;12.58;75.70;101361.94;5027261;28;20022;-74
2022/05/29 10:00:35;;;;;;;4.30;1.90;;;;;;;12.61;73.39;101363.38;5002409;28;20049;-73
2022/05/29 10:03:14;;;;;;;6.73;2.27;;;;;;;12.62;72.69;101359.59;5025131;28;20036;-73
2022/05/29 10:05:43;;;;;;;5.95;2.63;;;;;;;12.67;75.68;101352.44;5014443;28;20030;-73
2022/05/29 10:08:18;;;;;;;8.05;2.35;;;;;;;12.71;74.57;101352.81;5031936;28;20029;-73
2022/05/29 10:10:43;;;;;;;7.53;2.38;;;;;;;12.76;73.25;101358.41;5049150;28;20166;-74
2022/05/29 10:13:09;;;;;;;7.88;2.03;;;;;;;12.77;71.75;101349.19;5051696;28;20161;-73
2022/05/29 10:15:42;;;;;;;6.57;2.33;;;;;;;12.86;71.58;101349.72;5051860;28;20033;-74
2022/05/29 10:18:32;;;;;;;7.90;2.50;;;;;;;12.91;75.49;101358.84;5045276;28;20394;-74
2022/05/29 10:21:19;;;;;;;6.65;2.38;;;;;;;12.83;79.53;101394.47;5035878;28;20034;-74
2022/05/29 10:23:53;;;;;;;7.75;2.20;;;;;;;12.28;78.86;101359.13;5036111;28;20033;-76
2022/05/29 10:26:21;;;;;;;4.18;1.20;;;;;;;11.94;72.67;101372.16;5035887;28;20033;-74
2022/05/29 10:28:47;;;;;;;3.10;1.13;;;;;;;11.78;78.38;101359.97;5026996;28;20037;-75
2022/05/29 10:31:21;;;;;;;4.63;1.40;;;;;;;11.70;82.64;101355.63;5035824;28;20030;-73
2022/05/29 10:34:03;;;;;;;2.67;1.40;;;;;;;11.74;83.54;101348.69;5035680;28;20044;-73
2022/05/29 10:36:29;;;;;;;5.82;1.73;;;;;;;11.72;85.84;101348.09;5035803;28;20130;-73
2022/05/29 10:39:07;;;;;;;4.15;1.70;;;;;;;11.80;86.76;101339.69;5035615;28;20482;-73
2022/05/29 10:41:36;;;;;;;5.97;2.00;;;;;;;11.80;85.74;101336.97;5029185;28;20425;-73
2022/05/29 10:44:01;;;;;;;5.22;1.92;;;;;;;11.84;89.38;101342.81;5035392;28;20032;-74
2022/05/29 10:46:45;;;;;;;4.47;2.03;;;;;;;11.81;87.75;101349.47;5035564;28;20026;-73
2022/05/29 10:49:42;;;;;;;4.40;2.00;;;;;;;11.85;89.23;101358.84;5035114;28;20096;-74
2022/05/29 10:52:39;;;;;;;10.38;2.30;;;;;;;11.88;90.44;101355.69;5019269;28;20042;-74
2022/05/29 10:55:31;;;;;;;6.47;2.38;;;;;;;11.82;88.26;101364.72;5035322;28;20021;-74
2022/05/29 10:58:17;;;;;;;7.35;2.75;;;;;;;11.81;90.26;101360.34;5035238;28;20087;-73
2022/05/29 11:00:50;;;;;;;8.75;2.45;;;;;;;11.77;87.14;101356.38;5031791;28;20120;-73
2022/05/29 11:03:48;;;;;;;4.85;2.40;;;;;;;11.88;89.95;101358.41;5035398;28;20083;-74
2022/05/29 11:06:41;;;;;;;9.48;2.58;;;;;;;12.04;93.19;101353.50;5034982;28;20490;-74
2022/05/29 11:09:48;;;;;;;4.10;1.90;;;;;;;12.21;89.67;101357.31;5033668;28;20371;-74
2022/05/29 11:12:31;;;;;;;4.90;1.58;;;;;;;12.30;88.07;101348.88;5024093;28;20067;-75
2022/05/29 11:15:34;;;;;;;7.63;2.10;;;;;;;12.50;89.05;101344.06;5034486;28;20490;-76
2022/05/29 11:18:27;;;;;;;7.00;2.50;;;;;;;12.81;91.99;101347.69;5033168;28;20029;-76
2022/05/29 11:21:06;;;;;;;7.40;2.15;;;;;;;12.92;92.80;101337.94;5018047;28;20022;-76
2022/05/29 11:23:55;;;;;;;5.15;1.90;;;;;;;12.83;84.97;101348.28;5034835;28;20025;-73
2022/05/29 11:26:42;;;;;;;5.05;2.00;;;;;;;12.70;86.49;101351.16;5033519;28;20025;-75
2022/05/29 11:29:40;;;;;;;7.75;2.00;;;;;;;12.54;87.16;101339.84;5034112;28;20044;-74
2022/05/29 11:32:27;;;;;;;3.85;1.63;;;;;;;12.51;87.83;101358.47;5033035;28;20021;-74
2022/05/29 11:35:19;;;;;;;5.43;1.70;;;;;;;12.31;87.16;101361.41;5015882;28;20025;-74
2022/05/29 11:38:16;;;;;;;4.20;1.30;;;;;;;12.08;86.38;101354.72;5017138;28;20037;-74
2022/05/29 11:40:46;;;;;;;6.70;1.70;;;;;;;11.97;88.10;101347.28;5034261;28;20025;-74
2022/05/29 11:43:14;;;;;;;7.75;1.98;;;;;;;11.94;90.77;101354.00;5034224;28;20536;-74
2022/05/29 11:51:48;;;;;;;5.30;1.63;;;;;;;11.94;91.25;101339.59;5034183;28;20037;-74
2022/05/29 11:54:25;;;;;;;3.75;1.20;;;;;;;11.95;90.75;101341.28;5033781;28;20029;-76
2022/05/29 11:57:03;;;;;;;5.57;1.63;;;;;;;11.94;88.01;101336.91;5037385;28;20029;-76
2022/05/29 11:59:47;;;;;;;4.22;1.00;;;;;;;11.94;87.59;101345.88;5053437;28;20060;-76
2022/05/29 12:02:55;;;;;;;4.05;1.40;;;;;;;12.01;88.44;101343.09;5051248;28;20100;-76
2022/05/29 12:05:29;;;;;;;5.05;1.10;;;;;;;11.94;84.97;101340.47;5032023;28;20417;-75
2022/05/29 12:08:36;;;;;;;3.55;1.23;;;;;;;12.00;88.58;101330.56;5033504;28;20036;-76
2022/05/29 12:11:30;;;;;;;2.83;1.33;;;;;;;12.13;90.30;101329.63;5032638;28;20622;-76
2022/05/29 12:14:24;;;;;;;2.40;1.10;;;;;;;12.26;90.87;101328.66;5031702;28;20033;-74
2022/05/29 12:17:19;;;;;;;3.53;1.23;;;;;;;12.19;89.70;101326.84;5033211;28;20033;-75
2022/05/29 12:19:55;;;;;;;2.60;0.85;;;;;;;12.11;86.09;101321.72;5013893;28;20069;-74
2022/05/29 12:22:31;;;;;;;3.70;0.73;;;;;;;12.15;86.75;101317.50;5032285;28;20509;-74
2022/05/29 12:24:58;;;;;;;3.25;1.13;;;;;;;12.23;85.22;101324.53;5032038;28;20033;-74
2022/05/29 12:27:27;;;;;;;6.50;1.13;;;;;;;12.26;88.07;101317.81;5032056;28;20032;-74